sensor_id;sensor_type;location;lat;lon;timestamp;temperature;humidity
15386;DHT22;7791;47.246;9.648;2023-10-09T00:01:59;13.60;99.90
15386;DHT22;7791;47.246;9.648;2023-10-09T00:04:44;13.60;99.90
15386;DHT22;7791;47.246;9.648;2023-10-09T00:07:24;13.50;99.90
15386;DHT22;7791;47.246;9.648;2023-10-09T00:15:51;13.10;99.90
15386;DHT22;7791;47.246;9.648;2023-10-09T00:18:26;13.10;99.90
15386;DHT22;7791;47.246;9.648;2023-10-09T00:21:00;12.90;99.90
15386;DHT22;7791;47.246;9.648;2023-10-09T00:23:41;12.90;99.90
15386;DHT22;7791;47.246;9.648;2023-10-09T00:26:13;12.90;99.90
15386;DHT22;7791;47.246;9.648;2023-10-09T00:28:45;12.70;99.90
15386;DHT22;7791;47.246;9.648;2023-10-09T00:31:48;12.70;99.90
15386;DHT22;7791;47.246;9.648;2023-10-09T00:37:08;12.70;99.90
15386;DHT22;7791;47.246;9.648;2023-10-09T00:39:52;12.70;99.90
15386;DHT22;7791;47.246;9.648;2023-10-09T00:42:28;12.70;99.90
15386;DHT22;7791;47.246;9.648;2023-10-09T00:45:06;12.60;99.90
15386;DHT22;7791;47.246;9.648;2023-10-09T00:47:48;12.30;99.90
15386;DHT22;7791;47.246;9.648;2023-10-09T00:50:52;12.30;99.90
15386;DHT22;7791;47.246;9.648;2023-10-09T00:53:27;12.30;99.90
15386;DHT22;7791;47.246;9.648;2023-10-09T00:56:08;12.30;99.90
15386;DHT22;7791;47.246;9.648;2023-10-09T00:58:41;12.30;99.90
15386;DHT22;7791;47.246;9.648;2023-10-09T01:01:24;12.30;99.90
15386;DHT22;7791;47.246;9.648;2023-10-09T01:04:00;12.30;99.90
15386;DHT22;7791;47.246;9.648;2023-10-09T01:06:53;12.10;99.90
15386;DHT22;7791;47.246;9.648;2023-10-09T01:12:25;11.90;99.90
15386;DHT22;7791;47.246;9.648;2023-10-09T01:14:55;11.90;99.90
15386;DHT22;7791;47.246;9.648;2023-10-09T01:17:28;11.80;99.90
15386;DHT22;7791;47.246;9.648;2023-10-09T01:26:00;11.50;99.90
15386;DHT22;7791;47.246;9.648;2023-10-09T01:31:36;11.40;99.90
15386;DHT22;7791;47.246;9.648;2023-10-09T01:34:28;11.30;99.90
15386;DHT22;7791;47.246;9.648;2023-10-09T01:37:11;11.30;99.90
15386;DHT22;7791;47.246;9.648;2023-10-09T01:39:53;11.30;99.90
15386;DHT22;7791;47.246;9.648;2023-10-09T01:42:45;11.40;99.90
15386;DHT22;7791;47.246;9.648;2023-10-09T01:45:22;11.40;99.90
15386;DHT22;7791;47.246;9.648;2023-10-09T01:47:55;11.40;99.90
15386;DHT22;7791;47.246;9.648;2023-10-09T01:50:28;11.30;99.90
15386;DHT22;7791;47.246;9.648;2023-10-09T01:53:12;11.40;99.90
15386;DHT22;7791;47.246;9.648;2023-10-09T01:56:13;11.30;99.90
15386;DHT22;7791;47.246;9.648;2023-10-09T01:58:52;11.30;99.90
15386;DHT22;7791;47.246;9.648;2023-10-09T02:01:34;11.20;99.90
15386;DHT22;7791;47.246;9.648;2023-10-09T02:07:14;11.40;99.90
15386;DHT22;7791;47.246;9.648;2023-10-09T02:13:13;11.40;99.90
15386;DHT22;7791;47.246;9.648;2023-10-09T02:16:08;11.50;99.90
15386;DHT22;7791;47.246;9.648;2023-10-09T02:21:32;11.30;99.90
15386;DHT22;7791;47.246;9.648;2023-10-09T02:24:03;11.30;99.90
15386;DHT22;7791;47.246;9.648;2023-10-09T02:26:50;11.40;99.90
15386;DHT22;7791;47.246;9.648;2023-10-09T02:29:19;11.40;99.90
15386;DHT22;7791;47.246;9.648;2023-10-09T02:32:00;11.50;99.90
15386;DHT22;7791;47.246;9.648;2023-10-09T02:34:39;11.40;99.90
15386;DHT22;7791;47.246;9.648;2023-10-09T02:37:22;11.30;99.90
15386;DHT22;7791;47.246;9.648;2023-10-09T02:41:36;11.20;99.90
15386;DHT22;7791;47.246;9.648;2023-10-09T02:45:50;11.30;99.90
15386;DHT22;7791;47.246;9.648;2023-10-09T02:48:33;11.30;99.90
15386;DHT22;7791;47.246;9.648;2023-10-09T02:50:58;11.40;99.90
15386;DHT22;7791;47.246;9.648;2023-10-09T02:53:25;11.30;99.90
15386;DHT22;7791;47.246;9.648;2023-10-09T02:56:02;11.30;99.90
15386;DHT22;7791;47.246;9.648;2023-10-09T02:58:39;11.20;99.90
15386;DHT22;7791;47.246;9.648;2023-10-09T03:01:16;10.80;99.90
15386;DHT22;7791;47.246;9.648;2023-10-09T03:04:13;10.70;99.90
15386;DHT22;7791;47.246;9.648;2023-10-09T03:06:39;10.80;99.90
15386;DHT22;7791;47.246;9.648;2023-10-09T03:09:05;10.80;99.90
15386;DHT22;7791;47.246;9.648;2023-10-09T03:11:37;10.80;99.90
15386;DHT22;7791;47.246;9.648;2023-10-09T03:14:12;10.90;99.90
15386;DHT22;7791;47.246;9.648;2023-10-09T03:17:01;10.80;99.90
15386;DHT22;7791;47.246;9.648;2023-10-09T03:19:43;10.80;99.90
15386;DHT22;7791;47.246;9.648;2023-10-09T03:22:21;10.70;99.90
15386;DHT22;7791;47.246;9.648;2023-10-09T03:25:05;10.60;99.90
15386;DHT22;7791;47.246;9.648;2023-10-09T03:27:45;10.60;99.90
15386;DHT22;7791;47.246;9.648;2023-10-09T03:30:24;10.50;99.90
15386;DHT22;7791;47.246;9.648;2023-10-09T03:33:12;10.50;99.90
15386;DHT22;7791;47.246;9.648;2023-10-09T03:35:55;10.40;99.90
15386;DHT22;7791;47.246;9.648;2023-10-09T03:38:36;10.30;99.90
15386;DHT22;7791;47.246;9.648;2023-10-09T03:41:13;10.20;99.90
15386;DHT22;7791;47.246;9.648;2023-10-09T03:43:50;10.10;99.90
15386;DHT22;7791;47.246;9.648;2023-10-09T03:46:28;10.00;99.90
15386;DHT22;7791;47.246;9.648;2023-10-09T03:48:55;10.00;99.90
15386;DHT22;7791;47.246;9.648;2023-10-09T03:54:13;9.90;99.90
15386;DHT22;7791;47.246;9.648;2023-10-09T03:57:16;10.00;99.90
15386;DHT22;7791;47.246;9.648;2023-10-09T03:59:46;10.10;99.90
15386;DHT22;7791;47.246;9.648;2023-10-09T04:02:18;10.10;99.90
15386;DHT22;7791;47.246;9.648;2023-10-09T04:08:04;10.10;99.90
15386;DHT22;7791;47.246;9.648;2023-10-09T04:10:42;10.10;99.90
15386;DHT22;7791;47.246;9.648;2023-10-09T04:13:16;10.10;99.90
15386;DHT22;7791;47.246;9.648;2023-10-09T04:15:48;10.00;99.90
15386;DHT22;7791;47.246;9.648;2023-10-09T04:18:26;9.90;99.90
15386;DHT22;7791;47.246;9.648;2023-10-09T04:21:23;9.90;99.90
15386;DHT22;7791;47.246;9.648;2023-10-09T04:24:10;9.90;99.90
15386;DHT22;7791;47.246;9.648;2023-10-09T04:27:16;10.00;99.90
15386;DHT22;7791;47.246;9.648;2023-10-09T04:29:55;9.90;99.90
15386;DHT22;7791;47.246;9.648;2023-10-09T04:32:30;9.80;99.90
15386;DHT22;7791;47.246;9.648;2023-10-09T04:35:03;9.80;99.90
15386;DHT22;7791;47.246;9.648;2023-10-09T04:37:44;9.80;99.90
15386;DHT22;7791;47.246;9.648;2023-10-09T04:43:13;9.80;99.90
15386;DHT22;7791;47.246;9.648;2023-10-09T04:45:54;9.70;99.90
15386;DHT22;7791;47.246;9.648;2023-10-09T04:48:30;9.60;99.90
15386;DHT22;7791;47.246;9.648;2023-10-09T04:51:17;9.60;99.90
15386;DHT22;7791;47.246;9.648;2023-10-09T04:53:54;9.70;99.90
15386;DHT22;7791;47.246;9.648;2023-10-09T04:59:41;9.60;99.90
15386;DHT22;7791;47.246;9.648;2023-10-09T05:02:11;9.60;99.90
15386;DHT22;7791;47.246;9.648;2023-10-09T05:07:30;9.60;99.90
15386;DHT22;7791;47.246;9.648;2023-10-09T05:10:05;9.60;99.90
15386;DHT22;7791;47.246;9.648;2023-10-09T05:12:48;9.50;99.90
15386;DHT22;7791;47.246;9.648;2023-10-09T05:15:29;9.40;99.90
15386;DHT22;7791;47.246;9.648;2023-10-09T05:18:06;9.40;99.90
15386;DHT22;7791;47.246;9.648;2023-10-09T05:20:45;9.50;99.90
15386;DHT22;7791;47.246;9.648;2023-10-09T05:26:15;9.50;99.90
15386;DHT22;7791;47.246;9.648;2023-10-09T05:28:56;9.50;99.90
15386;DHT22;7791;47.246;9.648;2023-10-09T05:31:29;9.60;99.90
15386;DHT22;7791;47.246;9.648;2023-10-09T05:33:59;9.70;99.90
15386;DHT22;7791;47.246;9.648;2023-10-09T05:36:44;9.80;99.90
15386;DHT22;7791;47.246;9.648;2023-10-09T05:39:16;9.80;99.90
15386;DHT22;7791;47.246;9.648;2023-10-09T05:41:52;9.80;99.90
15386;DHT22;7791;47.246;9.648;2023-10-09T05:44:36;9.80;99.90
15386;DHT22;7791;47.246;9.648;2023-10-09T05:47:22;9.90;99.90
15386;DHT22;7791;47.246;9.648;2023-10-09T05:49:58;9.90;99.90
15386;DHT22;7791;47.246;9.648;2023-10-09T05:52:35;9.90;99.90
15386;DHT22;7791;47.246;9.648;2023-10-09T05:58:01;10.00;99.90
15386;DHT22;7791;47.246;9.648;2023-10-09T06:00:30;10.20;99.90
15386;DHT22;7791;47.246;9.648;2023-10-09T06:03:11;10.10;99.90
15386;DHT22;7791;47.246;9.648;2023-10-09T06:05:49;10.20;99.90
15386;DHT22;7791;47.246;9.648;2023-10-09T06:08:32;10.10;99.90
15386;DHT22;7791;47.246;9.648;2023-10-09T06:11:15;10.10;99.90
15386;DHT22;7791;47.246;9.648;2023-10-09T06:14:09;10.20;99.90
15386;DHT22;7791;47.246;9.648;2023-10-09T06:19:46;10.30;99.90
15386;DHT22;7791;47.246;9.648;2023-10-09T06:22:22;10.40;99.90
15386;DHT22;7791;47.246;9.648;2023-10-09T06:24:55;10.30;99.90
15386;DHT22;7791;47.246;9.648;2023-10-09T06:27:57;10.30;99.90
15386;DHT22;7791;47.246;9.648;2023-10-09T06:30:40;10.40;99.90
15386;DHT22;7791;47.246;9.648;2023-10-09T06:33:35;10.70;99.90
15386;DHT22;7791;47.246;9.648;2023-10-09T06:36:14;10.90;99.90
15386;DHT22;7791;47.246;9.648;2023-10-09T06:38:56;11.00;99.90
15386;DHT22;7791;47.246;9.648;2023-10-09T06:41:31;11.00;99.90
15386;DHT22;7791;47.246;9.648;2023-10-09T06:44:09;11.20;99.90
15386;DHT22;7791;47.246;9.648;2023-10-09T06:46:38;11.20;99.90
15386;DHT22;7791;47.246;9.648;2023-10-09T06:49:15;11.20;99.90
15386;DHT22;7791;47.246;9.648;2023-10-09T06:51:54;11.40;99.90
15386;DHT22;7791;47.246;9.648;2023-10-09T06:57:21;11.80;99.90
15386;DHT22;7791;47.246;9.648;2023-10-09T07:00:03;12.00;99.90
15386;DHT22;7791;47.246;9.648;2023-10-09T07:02:31;12.20;99.90
15386;DHT22;7791;47.246;9.648;2023-10-09T07:05:26;12.30;99.90
15386;DHT22;7791;47.246;9.648;2023-10-09T07:08:00;12.40;99.90
15386;DHT22;7791;47.246;9.648;2023-10-09T07:10:38;12.80;99.90
15386;DHT22;7791;47.246;9.648;2023-10-09T07:13:20;13.10;99.90
15386;DHT22;7791;47.246;9.648;2023-10-09T07:18:47;13.80;99.90
15386;DHT22;7791;47.246;9.648;2023-10-09T07:21:27;13.90;99.90
15386;DHT22;7791;47.246;9.648;2023-10-09T07:29:37;14.20;99.90
15386;DHT22;7791;47.246;9.648;2023-10-09T07:32:11;14.20;99.90
15386;DHT22;7791;47.246;9.648;2023-10-09T07:34:46;14.90;99.90
15386;DHT22;7791;47.246;9.648;2023-10-09T07:40:13;16.50;99.90
15386;DHT22;7791;47.246;9.648;2023-10-09T07:42:54;17.10;99.90
15386;DHT22;7791;47.246;9.648;2023-10-09T07:45:42;16.80;99.90
15386;DHT22;7791;47.246;9.648;2023-10-09T07:48:14;16.70;99.90
15386;DHT22;7791;47.246;9.648;2023-10-09T07:53:34;16.30;99.90
15386;DHT22;7791;47.246;9.648;2023-10-09T07:56:12;16.30;99.90
15386;DHT22;7791;47.246;9.648;2023-10-09T07:58:46;16.30;99.90
15386;DHT22;7791;47.246;9.648;2023-10-09T08:01:21;16.20;99.90
15386;DHT22;7791;47.246;9.648;2023-10-09T08:04:04;16.30;99.90
15386;DHT22;7791;47.246;9.648;2023-10-09T08:06:43;16.70;99.90
15386;DHT22;7791;47.246;9.648;2023-10-09T08:09:15;16.70;99.90
15386;DHT22;7791;47.246;9.648;2023-10-09T08:11:51;17.20;99.90
15386;DHT22;7791;47.246;9.648;2023-10-09T08:14:33;17.70;99.90
15386;DHT22;7791;47.246;9.648;2023-10-09T08:17:02;17.80;99.90
15386;DHT22;7791;47.246;9.648;2023-10-09T08:19:45;18.20;99.90
15386;DHT22;7791;47.246;9.648;2023-10-09T08:25:10;20.00;99.90
15386;DHT22;7791;47.246;9.648;2023-10-09T08:30:27;22.70;99.90
15386;DHT22;7791;47.246;9.648;2023-10-09T08:33:00;24.10;99.90
15386;DHT22;7791;47.246;9.648;2023-10-09T08:35:43;24.40;99.90
15386;DHT22;7791;47.246;9.648;2023-10-09T08:38:15;25.20;99.90
15386;DHT22;7791;47.246;9.648;2023-10-09T08:41:05;25.70;99.90
15386;DHT22;7791;47.246;9.648;2023-10-09T08:44:02;26.60;99.90
15386;DHT22;7791;47.246;9.648;2023-10-09T08:46:40;27.30;99.60
15386;DHT22;7791;47.246;9.648;2023-10-09T08:49:34;27.50;98.70
15386;DHT22;7791;47.246;9.648;2023-10-09T08:54:52;28.00;97.70
15386;DHT22;7791;47.246;9.648;2023-10-09T08:57:37;28.00;97.00
15386;DHT22;7791;47.246;9.648;2023-10-09T09:00:24;27.60;96.90
15386;DHT22;7791;47.246;9.648;2023-10-09T09:03:08;27.00;97.40
15386;DHT22;7791;47.246;9.648;2023-10-09T09:05:40;26.00;98.80
15386;DHT22;7791;47.246;9.648;2023-10-09T09:08:25;26.00;99.50
15386;DHT22;7791;47.246;9.648;2023-10-09T09:11:28;26.30;98.90
15386;DHT22;7791;47.246;9.648;2023-10-09T09:14:11;26.90;97.90
15386;DHT22;7791;47.246;9.648;2023-10-09T09:16:59;26.50;98.00
15386;DHT22;7791;47.246;9.648;2023-10-09T09:19:37;27.00;96.90
15386;DHT22;7791;47.246;9.648;2023-10-09T09:27:57;28.50;94.00
15386;DHT22;7791;47.246;9.648;2023-10-09T09:30:33;28.60;94.90
15386;DHT22;7791;47.246;9.648;2023-10-09T09:33:23;29.60;93.20
15386;DHT22;7791;47.246;9.648;2023-10-09T09:36:09;30.00;92.60
15386;DHT22;7791;47.246;9.648;2023-10-09T09:38:56;31.10;91.70
15386;DHT22;7791;47.246;9.648;2023-10-09T09:41:24;31.70;89.50
15386;DHT22;7791;47.246;9.648;2023-10-09T09:43:53;32.10;88.80
15386;DHT22;7791;47.246;9.648;2023-10-09T09:46:31;32.60;86.20
15386;DHT22;7791;47.246;9.648;2023-10-09T09:49:08;33.10;86.90
15386;DHT22;7791;47.246;9.648;2023-10-09T09:51:38;32.60;84.70
15386;DHT22;7791;47.246;9.648;2023-10-09T09:54:12;33.00;83.50
15386;DHT22;7791;47.246;9.648;2023-10-09T09:56:52;33.00;81.90
15386;DHT22;7791;47.246;9.648;2023-10-09T09:59:30;33.50;82.10
15386;DHT22;7791;47.246;9.648;2023-10-09T10:02:27;32.50;78.00
15386;DHT22;7791;47.246;9.648;2023-10-09T10:05:11;31.90;78.40
15386;DHT22;7791;47.246;9.648;2023-10-09T10:08:06;31.00;79.40
15386;DHT22;7791;47.246;9.648;2023-10-09T10:10:49;30.10;80.50
15386;DHT22;7791;47.246;9.648;2023-10-09T10:16:29;29.70;82.50
15386;DHT22;7791;47.246;9.648;2023-10-09T10:19:21;29.90;81.10
15386;DHT22;7791;47.246;9.648;2023-10-09T10:22:12;30.10;79.80
15386;DHT22;7791;47.246;9.648;2023-10-09T10:24:50;30.80;83.70
15386;DHT22;7791;47.246;9.648;2023-10-09T10:27:25;30.80;83.60
15386;DHT22;7791;47.246;9.648;2023-10-09T10:33:00;31.90;81.60
15386;DHT22;7791;47.246;9.648;2023-10-09T10:38:57;32.30;78.80
15386;DHT22;7791;47.246;9.648;2023-10-09T10:41:40;33.10;78.60
15386;DHT22;7791;47.246;9.648;2023-10-09T10:44:34;32.90;77.40
15386;DHT22;7791;47.246;9.648;2023-10-09T10:47:15;32.30;77.60
15386;DHT22;7791;47.246;9.648;2023-10-09T10:50:11;32.20;78.10
15386;DHT22;7791;47.246;9.648;2023-10-09T10:53:13;32.50;79.10
15386;DHT22;7791;47.246;9.648;2023-10-09T10:55:59;32.90;79.20
15386;DHT22;7791;47.246;9.648;2023-10-09T10:58:29;33.20;77.70
15386;DHT22;7791;47.246;9.648;2023-10-09T11:01:18;33.30;75.60
15386;DHT22;7791;47.246;9.648;2023-10-09T11:03:57;33.30;76.30
15386;DHT22;7791;47.246;9.648;2023-10-09T11:09:36;33.00;77.30
15386;DHT22;7791;47.246;9.648;2023-10-09T11:12:30;33.00;77.30
15386;DHT22;7791;47.246;9.648;2023-10-09T11:15:08;33.00;77.40
15386;DHT22;7791;47.246;9.648;2023-10-09T11:17:57;32.70;78.40
15386;DHT22;7791;47.246;9.648;2023-10-09T11:20:22;33.10;78.70
15386;DHT22;7791;47.246;9.648;2023-10-09T11:22:49;33.40;78.60
15386;DHT22;7791;47.246;9.648;2023-10-09T11:28:36;33.40;74.00
15386;DHT22;7791;47.246;9.648;2023-10-09T11:31:22;32.90;77.60
15386;DHT22;7791;47.246;9.648;2023-10-09T11:34:08;32.50;75.50
15386;DHT22;7791;47.246;9.648;2023-10-09T11:37:03;32.30;75.40
15386;DHT22;7791;47.246;9.648;2023-10-09T11:39:45;32.60;75.10
15386;DHT22;7791;47.246;9.648;2023-10-09T11:42:29;32.80;74.10
15386;DHT22;7791;47.246;9.648;2023-10-09T11:45:01;32.70;74.70
15386;DHT22;7791;47.246;9.648;2023-10-09T11:47:34;32.50;75.10
15386;DHT22;7791;47.246;9.648;2023-10-09T11:50:01;33.30;77.20
15386;DHT22;7791;47.246;9.648;2023-10-09T11:52:54;33.60;80.30
15386;DHT22;7791;47.246;9.648;2023-10-09T11:55:19;33.80;76.70
15386;DHT22;7791;47.246;9.648;2023-10-09T11:57:45;34.30;77.80
15386;DHT22;7791;47.246;9.648;2023-10-09T12:00:29;34.20;75.40
15386;DHT22;7791;47.246;9.648;2023-10-09T12:03:05;34.10;76.60
15386;DHT22;7791;47.246;9.648;2023-10-09T12:08:54;31.00;79.80
15386;DHT22;7791;47.246;9.648;2023-10-09T12:14:47;28.40;86.90
15386;DHT22;7791;47.246;9.648;2023-10-09T12:20:26;27.90;88.90
15386;DHT22;7791;47.246;9.648;2023-10-09T12:23:11;27.50;90.20
15386;DHT22;7791;47.246;9.648;2023-10-09T12:25:52;27.10;90.30
15386;DHT22;7791;47.246;9.648;2023-10-09T12:28:29;27.00;90.80
15386;DHT22;7791;47.246;9.648;2023-10-09T12:31:04;27.10;91.30
15386;DHT22;7791;47.246;9.648;2023-10-09T12:33:55;26.70;91.00
15386;DHT22;7791;47.246;9.648;2023-10-09T12:36:30;26.40;91.30
15386;DHT22;7791;47.246;9.648;2023-10-09T12:39:14;25.90;92.70
15386;DHT22;7791;47.246;9.648;2023-10-09T12:44:55;25.40;92.40
15386;DHT22;7791;47.246;9.648;2023-10-09T12:47:36;26.20;92.20
15386;DHT22;7791;47.246;9.648;2023-10-09T12:50:13;27.20;91.50
15386;DHT22;7791;47.246;9.648;2023-10-09T12:52:55;27.80;90.70
15386;DHT22;7791;47.246;9.648;2023-10-09T12:55:55;28.00;89.20
15386;DHT22;7791;47.246;9.648;2023-10-09T12:58:27;27.70;90.10
15386;DHT22;7791;47.246;9.648;2023-10-09T13:01:13;27.20;90.60
15386;DHT22;7791;47.246;9.648;2023-10-09T13:03:55;26.40;91.70
15386;DHT22;7791;47.246;9.648;2023-10-09T13:06:21;26.60;92.50
15386;DHT22;7791;47.246;9.648;2023-10-09T13:08:48;26.50;91.80
15386;DHT22;7791;47.246;9.648;2023-10-09T13:11:41;26.80;91.60
15386;DHT22;7791;47.246;9.648;2023-10-09T13:14:16;27.00;91.60
15386;DHT22;7791;47.246;9.648;2023-10-09T13:16:50;27.20;91.20
15386;DHT22;7791;47.246;9.648;2023-10-09T13:19:39;27.30;90.70
15386;DHT22;7791;47.246;9.648;2023-10-09T13:22:05;27.70;90.80
15386;DHT22;7791;47.246;9.648;2023-10-09T13:24:53;27.80;91.60
15386;DHT22;7791;47.246;9.648;2023-10-09T13:27:57;27.90;91.30
15386;DHT22;7791;47.246;9.648;2023-10-09T13:33:21;27.20;92.00
15386;DHT22;7791;47.246;9.648;2023-10-09T13:36:00;26.60;93.20
15386;DHT22;7791;47.246;9.648;2023-10-09T13:38:43;26.60;94.30
15386;DHT22;7791;47.246;9.648;2023-10-09T13:41:29;26.70;94.10
15386;DHT22;7791;47.246;9.648;2023-10-09T13:44:07;26.80;93.80
15386;DHT22;7791;47.246;9.648;2023-10-09T13:46:36;26.30;93.20
15386;DHT22;7791;47.246;9.648;2023-10-09T13:49:14;25.70;94.70
15386;DHT22;7791;47.246;9.648;2023-10-09T13:52:00;25.60;96.60
15386;DHT22;7791;47.246;9.648;2023-10-09T13:54:44;25.50;97.40
15386;DHT22;7791;47.246;9.648;2023-10-09T13:57:27;25.50;96.70
15386;DHT22;7791;47.246;9.648;2023-10-09T14:00:04;25.60;96.70
15386;DHT22;7791;47.246;9.648;2023-10-09T14:02:46;25.50;97.10
15386;DHT22;7791;47.246;9.648;2023-10-09T14:05:27;25.30;98.10
15386;DHT22;7791;47.246;9.648;2023-10-09T14:08:08;24.80;99.70
15386;DHT22;7791;47.246;9.648;2023-10-09T14:10:46;24.30;99.90
15386;DHT22;7791;47.246;9.648;2023-10-09T14:13:26;23.90;99.90
15386;DHT22;7791;47.246;9.648;2023-10-09T14:16:10;24.00;99.90
15386;DHT22;7791;47.246;9.648;2023-10-09T14:18:50;24.30;99.90
15386;DHT22;7791;47.246;9.648;2023-10-09T14:21:31;24.60;99.90
15386;DHT22;7791;47.246;9.648;2023-10-09T14:24:10;24.60;99.90
15386;DHT22;7791;47.246;9.648;2023-10-09T14:26:46;24.70;99.90
15386;DHT22;7791;47.246;9.648;2023-10-09T14:29:21;24.80;99.90
15386;DHT22;7791;47.246;9.648;2023-10-09T14:31:59;24.80;99.90
15386;DHT22;7791;47.246;9.648;2023-10-09T14:34:41;24.70;99.90
15386;DHT22;7791;47.246;9.648;2023-10-09T14:37:12;24.70;99.90
15386;DHT22;7791;47.246;9.648;2023-10-09T14:40:00;24.70;99.90
15386;DHT22;7791;47.246;9.648;2023-10-09T14:42:39;24.60;99.90
15386;DHT22;7791;47.246;9.648;2023-10-09T14:45:20;24.40;99.90
15386;DHT22;7791;47.246;9.648;2023-10-09T14:47:51;24.10;99.90
15386;DHT22;7791;47.246;9.648;2023-10-09T14:50:47;23.80;99.90
15386;DHT22;7791;47.246;9.648;2023-10-09T14:53:42;23.80;99.90
15386;DHT22;7791;47.246;9.648;2023-10-09T14:56:07;23.80;99.90
15386;DHT22;7791;47.246;9.648;2023-10-09T14:58:33;23.70;99.90
15386;DHT22;7791;47.246;9.648;2023-10-09T15:01:24;23.60;99.90
15386;DHT22;7791;47.246;9.648;2023-10-09T15:03:55;23.60;99.90
15386;DHT22;7791;47.246;9.648;2023-10-09T15:06:31;23.40;99.90
15386;DHT22;7791;47.246;9.648;2023-10-09T15:09:15;23.20;99.90
15386;DHT22;7791;47.246;9.648;2023-10-09T15:11:56;23.00;99.90
15386;DHT22;7791;47.246;9.648;2023-10-09T15:14:33;22.90;99.90
15386;DHT22;7791;47.246;9.648;2023-10-09T15:17:18;22.70;99.90
15386;DHT22;7791;47.246;9.648;2023-10-09T15:19:48;22.40;99.90
15386;DHT22;7791;47.246;9.648;2023-10-09T15:22:28;21.70;99.90
15386;DHT22;7791;47.246;9.648;2023-10-09T15:25:12;21.50;99.90
15386;DHT22;7791;47.246;9.648;2023-10-09T15:27:57;21.60;99.90
15386;DHT22;7791;47.246;9.648;2023-10-09T15:30:48;21.60;99.90
15386;DHT22;7791;47.246;9.648;2023-10-09T15:34:58;21.70;99.90
15386;DHT22;7791;47.246;9.648;2023-10-09T15:36:21;21.80;99.90
15386;DHT22;7791;47.246;9.648;2023-10-09T15:38:53;21.80;99.90
15386;DHT22;7791;47.246;9.648;2023-10-09T15:41:37;21.80;99.90
15386;DHT22;7791;47.246;9.648;2023-10-09T15:44:29;21.90;99.90
15386;DHT22;7791;47.246;9.648;2023-10-09T15:47:13;21.80;99.90
15386;DHT22;7791;47.246;9.648;2023-10-09T15:49:49;21.30;99.90
15386;DHT22;7791;47.246;9.648;2023-10-09T15:52:23;21.10;99.90
15386;DHT22;7791;47.246;9.648;2023-10-09T15:54:50;20.40;99.90
15386;DHT22;7791;47.246;9.648;2023-10-09T15:57:31;20.50;99.90
15386;DHT22;7791;47.246;9.648;2023-10-09T16:00:03;20.60;99.90
15386;DHT22;7791;47.246;9.648;2023-10-09T16:03:07;20.70;99.90
15386;DHT22;7791;47.246;9.648;2023-10-09T16:08:40;20.60;99.90
15386;DHT22;7791;47.246;9.648;2023-10-09T16:11:23;20.30;99.90
15386;DHT22;7791;47.246;9.648;2023-10-09T16:14:00;20.40;99.90
15386;DHT22;7791;47.246;9.648;2023-10-09T16:16:40;20.40;99.90
15386;DHT22;7791;47.246;9.648;2023-10-09T16:19:14;20.40;99.90
15386;DHT22;7791;47.246;9.648;2023-10-09T16:21:56;20.50;99.90
15386;DHT22;7791;47.246;9.648;2023-10-09T16:24:32;20.50;99.90
15386;DHT22;7791;47.246;9.648;2023-10-09T16:27:04;20.40;99.90
15386;DHT22;7791;47.246;9.648;2023-10-09T16:29:37;20.40;99.90
15386;DHT22;7791;47.246;9.648;2023-10-09T16:32:23;20.10;99.90
15386;DHT22;7791;47.246;9.648;2023-10-09T16:34:59;20.00;99.90
15386;DHT22;7791;47.246;9.648;2023-10-09T16:38:02;19.90;99.90
15386;DHT22;7791;47.246;9.648;2023-10-09T16:40:40;19.80;99.90
15386;DHT22;7791;47.246;9.648;2023-10-09T16:43:11;19.60;99.90
15386;DHT22;7791;47.246;9.648;2023-10-09T16:46:04;19.40;99.90
15386;DHT22;7791;47.246;9.648;2023-10-09T16:48:42;19.30;99.90
15386;DHT22;7791;47.246;9.648;2023-10-09T16:51:20;19.20;99.90
15386;DHT22;7791;47.246;9.648;2023-10-09T16:54:00;19.20;99.90
15386;DHT22;7791;47.246;9.648;2023-10-09T16:56:28;19.10;99.90
15386;DHT22;7791;47.246;9.648;2023-10-09T16:59:13;19.00;99.90
15386;DHT22;7791;47.246;9.648;2023-10-09T17:04:26;18.90;99.90
15386;DHT22;7791;47.246;9.648;2023-10-09T17:09:43;18.80;99.90
15386;DHT22;7791;47.246;9.648;2023-10-09T17:12:20;18.70;99.90
15386;DHT22;7791;47.246;9.648;2023-10-09T17:15:05;18.50;99.90
15386;DHT22;7791;47.246;9.648;2023-10-09T17:17:51;18.20;99.90
15386;DHT22;7791;47.246;9.648;2023-10-09T17:23:21;18.10;99.90
15386;DHT22;7791;47.246;9.648;2023-10-09T17:26:10;17.80;99.90
15386;DHT22;7791;47.246;9.648;2023-10-09T17:29:01;17.80;99.90
15386;DHT22;7791;47.246;9.648;2023-10-09T17:31:49;17.70;99.90
15386;DHT22;7791;47.246;9.648;2023-10-09T17:34:22;17.70;99.90
15386;DHT22;7791;47.246;9.648;2023-10-09T17:37:24;17.60;99.90
15386;DHT22;7791;47.246;9.648;2023-10-09T17:39:58;17.40;99.90
15386;DHT22;7791;47.246;9.648;2023-10-09T17:42:35;17.30;99.90
15386;DHT22;7791;47.246;9.648;2023-10-09T17:45:11;17.30;99.90
15386;DHT22;7791;47.246;9.648;2023-10-09T17:47:51;17.20;99.90
15386;DHT22;7791;47.246;9.648;2023-10-09T17:50:26;17.20;99.90
15386;DHT22;7791;47.246;9.648;2023-10-09T17:53:15;17.10;99.90
15386;DHT22;7791;47.246;9.648;2023-10-09T17:55:54;17.00;99.90
15386;DHT22;7791;47.246;9.648;2023-10-09T17:58:40;16.90;99.90
15386;DHT22;7791;47.246;9.648;2023-10-09T18:01:14;16.80;99.90
15386;DHT22;7791;47.246;9.648;2023-10-09T18:03:58;16.70;99.90
15386;DHT22;7791;47.246;9.648;2023-10-09T18:06:24;16.70;99.90
15386;DHT22;7791;47.246;9.648;2023-10-09T18:08:50;16.70;99.90
15386;DHT22;7791;47.246;9.648;2023-10-09T18:11:43;16.60;99.90
15386;DHT22;7791;47.246;9.648;2023-10-09T18:14:24;16.60;99.90
15386;DHT22;7791;47.246;9.648;2023-10-09T18:16:57;16.40;99.90
15386;DHT22;7791;47.246;9.648;2023-10-09T18:19:33;16.10;99.90
15386;DHT22;7791;47.246;9.648;2023-10-09T18:22:04;16.00;99.90
15386;DHT22;7791;47.246;9.648;2023-10-09T18:24:38;16.00;99.90
15386;DHT22;7791;47.246;9.648;2023-10-09T18:27:11;15.90;99.90
15386;DHT22;7791;47.246;9.648;2023-10-09T18:29:53;15.90;99.90
15386;DHT22;7791;47.246;9.648;2023-10-09T18:32:25;15.90;99.90
15386;DHT22;7791;47.246;9.648;2023-10-09T18:34:55;15.90;99.90
15386;DHT22;7791;47.246;9.648;2023-10-09T18:37:42;15.80;99.90
15386;DHT22;7791;47.246;9.648;2023-10-09T18:40:15;15.80;99.90
15386;DHT22;7791;47.246;9.648;2023-10-09T18:42:57;15.90;99.90
15386;DHT22;7791;47.246;9.648;2023-10-09T18:45:46;16.00;99.90
15386;DHT22;7791;47.246;9.648;2023-10-09T18:48:19;16.10;99.90
15386;DHT22;7791;47.246;9.648;2023-10-09T18:50:47;16.20;99.90
15386;DHT22;7791;47.246;9.648;2023-10-09T18:53:22;16.60;99.90
15386;DHT22;7791;47.246;9.648;2023-10-09T18:56:07;17.10;99.90
15386;DHT22;7791;47.246;9.648;2023-10-09T18:58:48;17.40;99.90
15386;DHT22;7791;47.246;9.648;2023-10-09T19:01:16;17.70;99.90
15386;DHT22;7791;47.246;9.648;2023-10-09T19:03:42;17.90;99.90
15386;DHT22;7791;47.246;9.648;2023-10-09T19:06:24;18.10;99.90
15386;DHT22;7791;47.246;9.648;2023-10-09T19:08:54;18.20;99.90
15386;DHT22;7791;47.246;9.648;2023-10-09T19:11:25;18.30;99.90
15386;DHT22;7791;47.246;9.648;2023-10-09T19:16:49;18.60;99.90
15386;DHT22;7791;47.246;9.648;2023-10-09T19:19:24;18.60;99.90